Terminal Aerodrome Forecast
Issued by NWS

Home | Current Version | Previous Version | Text Only | Print | Product List | Glossary On
Versions: 1 2 3 4 5 6 7 8 9 10 11 12 13 14 15 16 17 18 19 20 21 22 23 24
000
FTUS42 KGSP 240530
TAFHKY
TAF
KHKY 240530Z 2406/2506 19005KT P6SM FEW050
     FM241100 VRB03KT P6SM SCT025
      TEMPO 2411/2415 BKN015
     FM241600 19004KT P6SM FEW025 SCT050
     FM250200 21003KT P6SM OVC200=

USA.gov is the U.S. government's official web portal to all federal, state and local government web resources and services.